createdAt,value
2022-08-04T00:00:32.114Z,25.13
2022-08-04T00:03:13.121Z,25.13
2022-08-04T00:05:54.267Z,25.33
2022-08-04T00:08:32.141Z,24.96
2022-08-04T00:11:02.733Z,24.90
2022-08-04T00:13:59.715Z,24.88
2022-08-04T00:16:32.809Z,24.80
2022-08-04T00:19:09.993Z,24.82
2022-08-04T00:21:40.949Z,24.89
2022-08-04T00:24:11.745Z,24.90
2022-08-04T00:26:42.738Z,24.82
2022-08-04T00:29:11.695Z,24.47
2022-08-04T00:31:54.891Z,24.61
2022-08-04T00:34:27.732Z,24.49
2022-08-04T00:36:57.376Z,24.42
2022-08-04T00:39:25.827Z,24.51
2022-08-04T00:42:14.544Z,24.43
2022-08-04T00:44:53.738Z,24.44
2022-08-04T00:47:34.333Z,24.36
2022-08-04T00:50:09.401Z,24.29
2022-08-04T00:52:46.331Z,24.26
2022-08-04T00:55:26.839Z,24.12
2022-08-04T00:58:14.130Z,24.21
2022-08-04T01:00:46.166Z,24.58
2022-08-04T01:03:19.992Z,24.45
2022-08-04T01:05:56.565Z,24.36
2022-08-04T01:08:56.700Z,24.43
2022-08-04T01:11:57.680Z,24.58
2022-08-04T01:14:47.950Z,24.40
2022-08-04T01:17:22.176Z,24.17
2022-08-04T01:20:06.833Z,24.37
2022-08-04T01:23:04.753Z,24.31
2022-08-04T01:26:41.965Z,24.19
2022-08-04T01:29:06.198Z,24.09
2022-08-04T01:31:44.161Z,24.06
2022-08-04T01:34:14.475Z,24.00
2022-08-04T01:36:50.047Z,23.99
2022-08-04T01:39:36.393Z,24.09
2022-08-04T01:42:05.812Z,23.98
2022-08-04T01:44:41.611Z,24.08
2022-08-04T01:47:11.106Z,24.03
2022-08-04T01:49:41.091Z,23.90
2022-08-04T01:52:11.289Z,24.28
2022-08-04T01:54:43.011Z,23.84
2022-08-04T01:57:37.713Z,24.16
2022-08-04T02:00:02.224Z,23.73
2022-08-04T02:02:32.461Z,24.08
2022-08-04T02:05:00.904Z,23.95
2022-08-04T02:07:52.831Z,23.97
2022-08-04T02:10:28.536Z,23.82
2022-08-04T02:13:09.186Z,23.77
2022-08-04T02:15:45.064Z,23.64
2022-08-04T02:18:19.924Z,23.47
2022-08-04T02:20:50.865Z,23.67
2022-08-04T02:23:26.578Z,23.54
2022-08-04T02:25:58.372Z,23.63
2022-08-04T02:28:34.005Z,23.62
2022-08-04T02:31:16.912Z,23.59
2022-08-04T02:33:47.071Z,23.87
2022-08-04T02:36:22.496Z,23.81
2022-08-04T02:38:57.009Z,23.19
2022-08-04T02:41:27.477Z,23.54
2022-08-04T02:44:00.936Z,23.31
2022-08-04T02:46:31.419Z,23.21
2022-08-04T02:48:59.951Z,23.37
2022-08-04T02:51:30.564Z,23.56
2022-08-04T02:53:59.901Z,23.49
2022-08-04T02:56:30.601Z,23.35
2022-08-04T02:59:01.129Z,23.43
2022-08-04T03:01:31.627Z,23.39
2022-08-04T03:04:22.112Z,23.23
2022-08-04T03:07:26.526Z,23.18
2022-08-04T03:10:43.008Z,23.21
2022-08-04T03:14:05.216Z,22.94
2022-08-04T03:17:02.395Z,23.12
2022-08-04T03:20:09.272Z,23.16
2022-08-04T03:23:14.195Z,23.20
2022-08-04T03:26:21.954Z,22.94
2022-08-04T03:29:33.181Z,23.04
2022-08-04T03:32:30.394Z,23.05
2022-08-04T03:35:22.943Z,23.11
2022-08-04T03:38:11.784Z,23.13
2022-08-04T03:41:10.052Z,23.16
2022-08-04T03:44:15.637Z,23.01
2022-08-04T03:47:09.279Z,22.97
2022-08-04T03:50:10.351Z,22.70
2022-08-04T03:53:09.568Z,23.23
2022-08-04T03:55:46.449Z,23.10
2022-08-04T03:58:44.974Z,22.85
2022-08-04T04:01:25.559Z,23.25
2022-08-04T04:04:09.689Z,23.02
2022-08-04T04:07:04.303Z,23.00
2022-08-04T04:10:07.506Z,23.13
2022-08-04T04:12:53.763Z,22.98
2022-08-04T04:15:38.990Z,23.24
2022-08-04T04:18:18.089Z,23.10
2022-08-04T04:21:00.281Z,23.03
2022-08-04T04:23:51.834Z,23.00
2022-08-04T04:26:45.819Z,23.20
2022-08-04T04:29:29.738Z,23.33
2022-08-04T04:32:06.764Z,23.12
2022-08-04T04:34:46.394Z,23.16
2022-08-04T04:37:38.603Z,23.32
2022-08-04T04:40:27.953Z,23.49
2022-08-04T04:43:18.196Z,23.37
2022-08-04T04:45:53.021Z,23.38
2022-08-04T04:48:31.010Z,23.48
2022-08-04T04:51:07.489Z,23.61
2022-08-04T04:53:44.481Z,23.29
2022-08-04T04:56:19.217Z,23.68
2022-08-04T04:58:48.080Z,23.60
2022-08-04T05:01:31.925Z,23.60
2022-08-04T05:04:22.822Z,23.68
2022-08-04T05:07:05.508Z,23.62
2022-08-04T05:09:43.642Z,23.64
2022-08-04T05:14:31.348Z,23.74
2022-08-04T05:15:15.858Z,23.81
2022-08-04T05:17:50.974Z,23.71
2022-08-04T05:20:24.157Z,23.62
2022-08-04T05:22:56.595Z,23.76
2022-08-04T05:25:27.978Z,23.75
2022-08-04T05:28:02.136Z,23.92
2022-08-04T05:30:32.168Z,23.86
2022-08-04T05:33:06.198Z,23.91
2022-08-04T05:35:47.883Z,24.12
2022-08-04T05:38:29.089Z,24.00
2022-08-04T05:40:59.284Z,23.94
2022-08-04T05:43:28.988Z,24.11
2022-08-04T05:45:58.439Z,24.10
2022-08-04T05:48:26.913Z,24.00
2022-08-04T05:51:00.576Z,23.95
2022-08-04T05:53:29.693Z,24.00
2022-08-04T05:55:59.650Z,23.98
2022-08-04T05:58:31.043Z,24.22
2022-08-04T06:01:00.151Z,24.46
2022-08-04T06:03:28.891Z,24.45
2022-08-04T06:06:02.420Z,24.50
2022-08-04T06:08:31.011Z,24.44
2022-08-04T06:11:00.818Z,24.55
2022-08-04T06:13:48.056Z,24.42
2022-08-04T06:16:28.535Z,24.43
2022-08-04T06:20:02.865Z,24.54
2022-08-04T06:21:51.663Z,24.64
2022-08-04T06:24:26.791Z,24.67
2022-08-04T06:27:00.161Z,24.69
2022-08-04T06:29:51.250Z,24.89
2022-08-04T06:32:33.624Z,24.74
2022-08-04T06:35:06.922Z,24.93
2022-08-04T06:37:41.869Z,24.87
2022-08-04T06:40:29.845Z,25.25
2022-08-04T06:43:01.309Z,25.35
2022-08-04T06:45:31.037Z,25.34
2022-08-04T06:47:59.934Z,25.55
2022-08-04T06:51:28.021Z,25.70
2022-08-04T06:53:21.265Z,25.65
2022-08-04T06:55:51.028Z,25.75
2022-08-04T06:58:20.634Z,25.89
2022-08-04T07:00:50.795Z,25.93
2022-08-04T07:03:21.834Z,26.02
2022-08-04T07:05:50.810Z,26.11
2022-08-04T07:08:19.433Z,26.10
2022-08-04T07:10:51.275Z,26.14
2022-08-04T07:13:20.239Z,26.03
2022-08-04T07:15:50.401Z,26.19
2022-08-04T07:18:20.054Z,26.18
2022-08-04T07:20:48.948Z,26.22
2022-08-04T07:23:19.956Z,26.24
2022-08-04T07:26:12.450Z,26.34
2022-08-04T07:28:44.151Z,26.42
2022-08-04T07:31:34.379Z,26.54
2022-08-04T07:34:17.659Z,26.45
2022-08-04T07:36:55.584Z,26.66
2022-08-04T07:39:47.689Z,26.75
2022-08-04T07:42:21.339Z,26.72
2022-08-04T07:44:50.006Z,26.75
2022-08-04T07:47:25.306Z,26.77
2022-08-04T07:49:58.004Z,26.73
2022-08-04T07:52:27.382Z,26.82
2022-08-04T07:54:56.584Z,26.89
2022-08-04T07:57:40.432Z,26.98
2022-08-04T08:00:11.696Z,27.11
2022-08-04T08:02:41.488Z,27.11
2022-08-04T08:05:11.617Z,27.18
2022-08-04T08:07:50.947Z,27.34
2022-08-04T08:10:28.969Z,27.34
2022-08-04T08:12:59.583Z,27.22
2022-08-04T08:15:31.405Z,27.23
2022-08-04T08:18:01.257Z,27.44
2022-08-04T08:20:31.963Z,27.52
2022-08-04T08:23:01.752Z,27.44
2022-08-04T08:25:31.566Z,27.62
2022-08-04T08:28:04.737Z,27.62
2022-08-04T08:30:34.346Z,27.58
2022-08-04T08:33:07.289Z,27.83
2022-08-04T08:35:54.217Z,27.88
2022-08-04T08:38:35.184Z,27.91
2022-08-04T08:41:25.190Z,27.91
2022-08-04T08:44:07.659Z,27.96
2022-08-04T08:46:51.386Z,28.01
2022-08-04T08:50:04.460Z,28.13
2022-08-04T08:52:56.439Z,28.29
2022-08-04T08:55:38.419Z,28.43
2022-08-04T08:58:22.008Z,28.71
2022-08-04T09:01:01.242Z,28.60
2022-08-04T09:03:43.350Z,28.67
2022-08-04T09:06:33.861Z,28.89
2022-08-04T09:09:10.477Z,28.94
2022-08-04T09:11:41.509Z,29.03
2022-08-04T09:14:16.552Z,28.96
2022-08-04T09:16:50.630Z,29.10
2022-08-04T09:19:38.041Z,29.17
2022-08-04T09:22:13.103Z,29.37
2022-08-04T09:24:49.828Z,29.44
2022-08-04T09:27:20.787Z,29.60
2022-08-04T09:29:54.065Z,29.62
2022-08-04T09:32:38.689Z,29.75
2022-08-04T09:35:19.140Z,29.88
2022-08-04T09:37:56.859Z,30.07
2022-08-04T09:40:52.504Z,30.17
2022-08-04T09:44:43.072Z,30.29
2022-08-04T09:46:22.446Z,30.43
2022-08-04T09:48:56.348Z,30.48
2022-08-04T09:51:57.316Z,30.62
2022-08-04T09:54:38.277Z,30.72
2022-08-04T09:57:15.546Z,30.93
2022-08-04T09:59:50.099Z,30.95
2022-08-04T10:02:19.495Z,31.03
2022-08-04T10:04:49.059Z,31.08
2022-08-04T10:07:39.789Z,31.16
2022-08-04T10:10:22.316Z,31.21
2022-08-04T10:13:09.046Z,31.36
2022-08-04T10:15:42.470Z,31.36
2022-08-04T10:18:24.364Z,31.55
2022-08-04T10:21:11.653Z,31.61
2022-08-04T10:23:56.337Z,31.78
2022-08-04T10:26:38.396Z,31.88
2022-08-04T10:29:12.214Z,31.93
2022-08-04T10:31:45.816Z,32.02
2022-08-04T10:34:16.766Z,32.02
2022-08-04T10:36:55.446Z,32.22
2022-08-04T10:39:43.232Z,32.26
2022-08-04T10:42:24.644Z,32.19
2022-08-04T10:45:00.306Z,32.31
2022-08-04T10:47:35.550Z,32.28
2022-08-04T10:50:08.538Z,32.53
2022-08-04T10:52:41.118Z,32.61
2022-08-04T10:55:14.566Z,32.60
2022-08-04T10:57:56.764Z,32.84
2022-08-04T11:00:27.037Z,32.97
2022-08-04T11:02:59.949Z,33.01
2022-08-04T11:05:32.241Z,33.13
2022-08-04T11:08:07.582Z,33.23
2022-08-04T11:10:42.580Z,33.21
2022-08-04T11:13:29.423Z,33.23
2022-08-04T11:16:04.451Z,33.21
2022-08-04T11:18:38.426Z,33.30
2022-08-04T11:21:19.942Z,33.44
2022-08-04T11:23:53.987Z,33.50
2022-08-04T11:26:28.680Z,33.53
2022-08-04T11:29:07.167Z,33.67
2022-08-04T11:31:38.280Z,33.83
2022-08-04T11:34:16.728Z,33.92
2022-08-04T11:36:48.179Z,34.04
2022-08-04T11:39:20.006Z,34.04
2022-08-04T11:41:55.361Z,34.10
2022-08-04T11:44:33.606Z,34.14
2022-08-04T11:47:09.990Z,34.37
2022-08-04T11:49:57.294Z,34.41
2022-08-04T11:52:27.936Z,34.37
2022-08-04T11:54:57.322Z,34.61
2022-08-04T11:57:35.786Z,34.55
2022-08-04T12:00:11.150Z,34.77
2022-08-04T12:03:12.069Z,34.66
2022-08-04T12:05:47.337Z,34.73
2022-08-04T12:08:28.052Z,34.86
2022-08-04T12:11:19.318Z,34.89
2022-08-04T12:13:50.920Z,35.08
2022-08-04T12:16:30.718Z,35.13
2022-08-04T12:19:01.609Z,35.18
2022-08-04T12:21:36.562Z,35.46
2022-08-04T12:24:09.625Z,35.47
2022-08-04T12:26:41.545Z,35.10
2022-08-04T12:29:12.815Z,35.34
2022-08-04T12:31:47.323Z,35.35
2022-08-04T12:34:19.097Z,35.47
2022-08-04T12:36:55.913Z,35.74
2022-08-04T12:39:24.730Z,35.77
2022-08-04T12:41:59.825Z,36.11
2022-08-04T12:44:38.045Z,36.07
2022-08-04T12:47:27.841Z,36.31
2022-08-04T12:50:04.025Z,36.38
2022-08-04T12:53:00.451Z,36.46
2022-08-04T12:55:30.266Z,36.34
2022-08-04T12:58:03.270Z,36.33
2022-08-04T13:00:40.683Z,36.51
2022-08-04T13:03:12.917Z,36.70
2022-08-04T13:05:42.630Z,36.76
2022-08-04T13:08:12.364Z,36.18
2022-08-04T13:10:42.547Z,36.62
2022-08-04T13:13:16.975Z,36.73
2022-08-04T13:15:47.509Z,37.01
2022-08-04T13:18:30.371Z,37.15
2022-08-04T13:21:20.365Z,37.09
2022-08-04T13:24:20.426Z,37.33
2022-08-04T13:26:54.322Z,37.34
2022-08-04T13:30:00.602Z,36.43
2022-08-04T13:32:22.485Z,36.92
2022-08-04T13:34:55.511Z,37.45
2022-08-04T13:37:27.673Z,37.66
2022-08-04T13:39:57.080Z,37.79
2022-08-04T13:42:27.984Z,38.17
2022-08-04T13:44:59.095Z,38.28
2022-08-04T13:47:30.721Z,38.07
2022-08-04T13:50:17.118Z,38.14
2022-08-04T13:52:46.539Z,38.22
2022-08-04T13:55:23.407Z,38.27
2022-08-04T13:57:59.078Z,38.46
2022-08-04T14:00:29.727Z,38.56
2022-08-04T14:03:23.809Z,38.47
2022-08-04T14:06:15.042Z,38.47
2022-08-04T14:08:55.647Z,38.93
2022-08-04T14:12:09.303Z,38.98
2022-08-04T14:14:24.443Z,39.39
2022-08-04T14:17:01.260Z,39.69
2022-08-04T14:19:35.961Z,39.68
2022-08-04T14:22:06.457Z,39.71
2022-08-04T14:24:34.674Z,39.67
2022-08-04T14:27:03.043Z,39.58
2022-08-04T14:29:38.927Z,39.64
2022-08-04T14:32:14.652Z,39.71
2022-08-04T14:34:46.205Z,39.93
2022-08-04T14:37:20.546Z,39.87
2022-08-04T14:40:17.853Z,39.83
2022-08-04T14:42:54.577Z,39.82
2022-08-04T14:45:32.730Z,39.58
2022-08-04T14:48:01.626Z,39.57
2022-08-04T14:50:38.487Z,39.11
2022-08-04T14:53:10.392Z,39.35
2022-08-04T14:55:40.033Z,39.11
2022-08-04T14:58:35.263Z,38.88
2022-08-04T15:01:10.322Z,39.20
2022-08-04T15:03:50.379Z,39.12
2022-08-04T15:06:24.001Z,39.00
2022-08-04T15:08:55.314Z,39.18
2022-08-04T15:11:24.858Z,39.29
2022-08-04T15:13:53.725Z,39.37
2022-08-04T15:16:22.699Z,39.35
2022-08-04T15:18:52.870Z,39.52
2022-08-04T15:21:23.960Z,39.40
2022-08-04T15:23:53.669Z,39.47
2022-08-04T15:26:29.218Z,39.47
2022-08-04T15:29:00.601Z,39.31
2022-08-04T15:32:05.739Z,39.63
2022-08-04T15:34:18.575Z,39.65
2022-08-04T15:36:56.801Z,39.67
2022-08-04T15:39:37.248Z,40.05
2022-08-04T15:42:20.499Z,40.21
2022-08-04T15:45:14.338Z,40.16
2022-08-04T15:47:42.583Z,40.17
2022-08-04T15:50:28.454Z,40.29
2022-08-04T15:53:10.329Z,40.24
2022-08-04T15:55:44.810Z,40.58
2022-08-04T15:58:17.551Z,40.78
2022-08-04T16:01:17.912Z,40.53
2022-08-04T16:03:59.302Z,40.84
2022-08-04T16:06:49.947Z,40.62
2022-08-04T16:09:46.149Z,40.78
2022-08-04T16:12:54.380Z,40.84
2022-08-04T16:15:41.585Z,40.56
2022-08-04T16:18:25.304Z,40.75
2022-08-04T16:20:58.095Z,40.85
2022-08-04T16:23:56.922Z,40.46
2022-08-04T16:26:46.103Z,40.69
2022-08-04T16:29:39.125Z,40.51
2022-08-04T16:32:19.867Z,40.60
2022-08-04T16:34:55.104Z,40.39
2022-08-04T16:37:32.601Z,40.18
2022-08-04T16:40:37.447Z,40.03
2022-08-04T16:43:09.352Z,40.08
2022-08-04T16:45:43.341Z,40.01
2022-08-04T16:48:13.925Z,39.99
2022-08-04T16:50:54.853Z,39.93
2022-08-04T16:54:03.227Z,39.98
2022-08-04T16:56:15.577Z,39.70
2022-08-04T16:58:53.751Z,39.52
2022-08-04T17:01:33.551Z,39.57
2022-08-04T17:04:08.380Z,39.37
2022-08-04T17:06:44.375Z,39.16
2022-08-04T17:09:18.927Z,38.93
2022-08-04T17:11:48.879Z,38.70
2022-08-04T17:14:31.338Z,38.58
2022-08-04T17:17:04.973Z,38.58
2022-08-04T17:19:39.526Z,38.51
2022-08-04T17:22:25.445Z,38.01
2022-08-04T17:25:10.492Z,38.04
2022-08-04T17:30:31.005Z,37.00
2022-08-04T17:33:04.621Z,36.67
2022-08-04T17:35:43.624Z,36.40
2022-08-04T17:38:16.540Z,35.97
2022-08-04T17:40:53.397Z,35.48
2022-08-04T17:44:04.223Z,34.95
2022-08-04T17:46:45.017Z,34.41
2022-08-04T17:49:24.768Z,34.25
2022-08-04T17:52:06.505Z,34.26
2022-08-04T17:54:44.973Z,33.97
2022-08-04T17:57:21.931Z,33.64
2022-08-04T17:59:58.929Z,33.57
2022-08-04T18:02:34.834Z,33.39
2022-08-04T18:05:12.135Z,33.22
2022-08-04T18:08:39.428Z,33.00
2022-08-04T18:10:51.692Z,32.82
2022-08-04T18:13:29.122Z,32.54
2022-08-04T18:16:22.317Z,32.47
2022-08-04T18:19:10.320Z,32.50
2022-08-04T18:21:46.080Z,32.42
2022-08-04T18:24:35.404Z,32.23
2022-08-04T18:27:30.039Z,32.31
2022-08-04T18:30:34.056Z,32.21
2022-08-04T18:33:24.566Z,32.12
2022-08-04T18:36:32.978Z,31.92
2022-08-04T18:42:01.871Z,31.77
2022-08-04T18:44:51.835Z,31.73
2022-08-04T18:47:58.767Z,31.61
2022-08-04T18:51:11.324Z,31.48
2022-08-04T18:53:35.761Z,31.54
2022-08-04T18:59:10.357Z,31.24
2022-08-04T19:02:09.318Z,31.20
2022-08-04T19:04:41.230Z,31.07
2022-08-04T19:07:29.185Z,31.04
2022-08-04T19:10:26.495Z,30.93
2022-08-04T19:13:03.945Z,30.97
2022-08-04T19:16:16.619Z,30.77
2022-08-04T19:18:57.498Z,30.72
2022-08-04T19:22:01.423Z,30.73
2022-08-04T19:24:35.274Z,30.54
2022-08-04T19:27:06.944Z,30.53
2022-08-04T19:29:40.659Z,30.73
2022-08-04T19:35:03.052Z,30.43
2022-08-04T19:38:01.654Z,30.49
2022-08-04T19:40:33.582Z,30.31
2022-08-04T19:43:14.247Z,30.22
2022-08-04T19:45:44.965Z,30.24
2022-08-04T19:48:19.487Z,30.43
2022-08-04T19:50:48.991Z,30.14
2022-08-04T19:53:20.090Z,30.10
2022-08-04T19:56:06.208Z,30.12
2022-08-04T19:58:34.697Z,30.04
2022-08-04T20:01:03.457Z,30.20
2022-08-04T20:04:10.266Z,30.13
2022-08-04T20:06:24.585Z,29.88
2022-08-04T20:08:53.254Z,29.95
2022-08-04T20:11:24.054Z,29.72
2022-08-04T20:13:54.729Z,29.78
2022-08-04T20:16:29.467Z,29.68
2022-08-04T20:21:55.005Z,29.49
2022-08-04T20:24:38.229Z,29.50
2022-08-04T20:27:15.519Z,29.43
2022-08-04T20:29:46.069Z,29.37
2022-08-04T20:32:20.162Z,29.48
2022-08-04T20:34:52.988Z,29.37
2022-08-04T20:37:23.824Z,29.41
2022-08-04T20:39:55.327Z,29.34
2022-08-04T20:42:27.186Z,29.26
2022-08-04T20:45:02.030Z,29.24
2022-08-04T20:47:35.593Z,29.28
2022-08-04T20:50:09.067Z,29.14
2022-08-04T20:52:39.665Z,29.23
2022-08-04T20:55:10.052Z,29.15
2022-08-04T20:57:49.743Z,29.10
2022-08-04T21:03:07.697Z,29.16
2022-08-04T21:05:37.544Z,29.15
2022-08-04T21:08:06.029Z,29.09
2022-08-04T21:10:35.442Z,29.08
2022-08-04T21:13:03.726Z,29.11
2022-08-04T21:15:58.842Z,29.25
2022-08-04T21:18:29.272Z,28.95
2022-08-04T21:20:59.567Z,29.04
2022-08-04T21:23:28.873Z,28.94
2022-08-04T21:26:04.185Z,29.09
2022-08-04T21:28:32.895Z,28.93
2022-08-04T21:33:52.184Z,28.84
2022-08-04T21:36:22.300Z,28.95
2022-08-04T21:38:55.766Z,28.84
2022-08-04T21:41:26.949Z,28.61
2022-08-04T21:43:56.416Z,28.76
2022-08-04T21:46:27.376Z,28.61
2022-08-04T21:48:58.550Z,28.62
2022-08-04T21:51:57.946Z,28.52
2022-08-04T21:54:18.092Z,28.39
2022-08-04T21:56:50.625Z,28.40
2022-08-04T21:59:23.841Z,28.41
2022-08-04T22:02:01.318Z,28.19
2022-08-04T22:04:32.483Z,28.33
2022-08-04T22:10:02.542Z,28.15
2022-08-04T22:12:33.627Z,28.18
2022-08-04T22:16:02.664Z,28.16
2022-08-04T22:17:54.316Z,28.17
2022-08-04T22:20:27.612Z,28.11
2022-08-04T22:23:15.432Z,28.09
2022-08-04T22:25:55.394Z,28.04
2022-08-04T22:28:27.840Z,27.93
2022-08-04T22:30:57.960Z,27.78
2022-08-04T22:33:55.187Z,27.93
2022-08-04T22:36:16.931Z,27.96
2022-08-04T22:38:54.970Z,27.89
2022-08-04T22:41:33.869Z,27.81
2022-08-04T22:44:02.260Z,27.97
2022-08-04T22:46:31.397Z,27.85
2022-08-04T22:49:02.091Z,27.77
2022-08-04T22:51:30.320Z,27.84
2022-08-04T22:54:01.719Z,27.62
2022-08-04T22:56:37.969Z,27.68
2022-08-04T22:59:11.213Z,27.71
2022-08-04T23:01:59.154Z,27.88
2022-08-04T23:04:30.577Z,27.71
2022-08-04T23:07:05.210Z,27.56
2022-08-04T23:09:50.163Z,27.56
2022-08-04T23:12:26.532Z,27.75
2022-08-04T23:14:56.240Z,27.65
2022-08-04T23:17:24.832Z,27.61
2022-08-04T23:19:58.221Z,27.57
2022-08-04T23:22:41.166Z,27.64
2022-08-04T23:25:15.201Z,27.43
2022-08-04T23:27:51.234Z,27.50
2022-08-04T23:30:24.884Z,27.44
2022-08-04T23:32:59.168Z,27.52
2022-08-04T23:35:27.543Z,27.45
2022-08-04T23:37:56.968Z,27.40
2022-08-04T23:40:33.317Z,27.43
2022-08-04T23:43:17.045Z,27.19
2022-08-04T23:46:06.930Z,27.10
2022-08-04T23:48:35.416Z,27.09
2022-08-04T23:51:14.066Z,27.13
2022-08-04T23:54:02.508Z,27.22
2022-08-04T23:56:34.378Z,27.12
2022-08-04T23:59:03.922Z,27.09
